Time;durP1;ratioP1;P1;durP2;ratioP2;P2;SDS_P1;SDS_P2;PMS_P1;PMS_P2;Temp;Humidity;BMP_temperature;BMP_pressure;BME280_temperature;BME280_humidity;BME280_pressure;Samples;Min_cycle;Max_cycle;Signal;HPM_P1;HPM_P2
2021/12/30 00:00:29;;;;;;;12.32;4.82;;;-2.50;99.90;;;;;;4917959;29;20028;-92
2021/12/30 00:02:54;;;;;;;14.05;7.45;;;-2.50;99.90;;;;;;4949781;29;20032;-92
2021/12/30 00:05:21;;;;;;;10.93;6.15;;;-2.50;99.90;;;;;;4917785;29;20031;-91
2021/12/30 00:07:47;;;;;;;13.45;5.90;;;-2.50;99.90;;;;;;4917679;29;20028;-92
2021/12/30 00:10:13;;;;;;;9.90;5.15;;;-2.50;99.90;;;;;;4918244;29;20095;-91
2021/12/30 00:12:39;;;;;;;10.75;5.50;;;-2.50;99.90;;;;;;4917993;29;20475;-91
2021/12/30 00:15:07;;;;;;;12.88;6.60;;;-2.50;99.90;;;;;;4918586;29;20073;-91
2021/12/30 00:17:34;;;;;;;11.93;5.15;;;-2.50;99.90;;;;;;4917833;29;20136;-91
2021/12/30 00:20:01;;;;;;;15.63;6.75;;;-2.50;99.90;;;;;;4919245;29;20589;-92
2021/12/30 00:22:28;;;;;;;11.90;5.55;;;-2.50;99.90;;;;;;4918153;29;20035;-92
2021/12/30 00:24:54;;;;;;;14.48;6.55;;;-2.50;99.90;;;;;;4919106;29;20028;-92
2021/12/30 00:27:20;;;;;;;13.10;5.90;;;-2.50;99.90;;;;;;4918609;29;20024;-91
2021/12/30 00:29:46;;;;;;;10.88;5.63;;;-2.40;99.90;;;;;;4927237;29;20061;-91
2021/12/30 00:32:11;;;;;;;12.73;6.53;;;-2.40;99.90;;;;;;4925974;29;20464;-91
2021/12/30 00:34:37;;;;;;;13.68;6.78;;;-2.40;99.90;;;;;;4925067;29;20027;-91
2021/12/30 00:37:03;;;;;;;14.48;6.30;;;-2.40;99.90;;;;;;4924817;29;20035;-92
2021/12/30 00:39:29;;;;;;;15.30;6.70;;;-2.40;99.90;;;;;;4924988;29;20031;-91
2021/12/30 00:41:55;;;;;;;13.75;6.25;;;-2.40;99.90;;;;;;4924530;29;20024;-91
2021/12/30 00:44:20;;;;;;;11.95;5.82;;;-2.30;99.90;;;;;;4924840;29;20459;-91
2021/12/30 00:46:49;;;;;;;13.13;5.57;;;-2.40;99.90;;;;;;4924070;29;20460;-91
2021/12/30 00:49:15;;;;;;;11.77;5.40;;;-2.30;99.90;;;;;;4923752;29;20042;-92
2021/12/30 00:51:41;;;;;;;14.00;5.95;;;-2.40;99.90;;;;;;4924357;29;20031;-92
2021/12/30 00:54:07;;;;;;;13.23;5.80;;;-2.40;99.90;;;;;;4924021;29;20035;-92
2021/12/30 00:56:33;;;;;;;12.65;6.30;;;-2.40;99.90;;;;;;4940963;29;20032;-91
2021/12/30 00:58:58;;;;;;;14.02;8.18;;;-2.40;99.90;;;;;;4924206;29;20039;-92
2021/12/30 01:01:25;;;;;;;7.65;4.40;;;-2.40;99.90;;;;;;4924251;29;20038;-91
2021/12/30 01:03:51;;;;;;;8.43;5.30;;;-2.40;99.90;;;;;;4924415;29;20460;-92
2021/12/30 01:06:18;;;;;;;6.68;3.63;;;-2.40;99.90;;;;;;4940599;29;20024;-92
2021/12/30 01:08:44;;;;;;;13.00;6.38;;;-2.40;99.90;;;;;;4923699;29;20161;-92
2021/12/30 01:11:11;;;;;;;12.27;5.72;;;-2.30;99.90;;;;;;4940923;29;20360;-91
2021/12/30 01:13:40;;;;;;;10.32;5.35;;;-2.30;99.90;;;;;;4923546;29;20031;-91
2021/12/30 01:16:16;;;;;;;16.30;6.32;;;-2.30;99.90;;;;;;4923922;29;20032;-91
2021/12/30 01:18:56;;;;;;;8.02;4.25;;;-2.30;99.90;;;;;;4924268;29;20031;-92
2021/12/30 01:21:28;;;;;;;11.45;5.93;;;-2.30;99.90;;;;;;4924843;29;20068;-91
2021/12/30 01:23:55;;;;;;;9.95;5.10;;;-2.20;99.90;;;;;;4926115;29;20059;-91
2021/12/30 01:26:21;;;;;;;9.93;5.63;;;-2.20;99.90;;;;;;4925808;29;20028;-91
2021/12/30 01:28:49;;;;;;;6.55;3.88;;;-2.10;99.90;;;;;;4925034;29;20055;-92
2021/12/30 01:31:15;;;;;;;8.52;4.28;;;-2.10;99.90;;;;;;4925116;29;20368;-92
2021/12/30 01:33:43;;;;;;;9.45;4.57;;;-2.10;99.90;;;;;;4924682;29;20031;-92
2021/12/30 01:36:09;;;;;;;11.25;5.78;;;-2.10;99.90;;;;;;4923557;29;20074;-91
2021/12/30 01:38:36;;;;;;;14.05;5.18;;;-2.00;99.90;;;;;;4923687;29;20055;-91
2021/12/30 01:41:02;;;;;;;10.35;5.32;;;-2.00;99.90;;;;;;4923021;29;20071;-91
2021/12/30 01:43:29;;;;;;;8.18;4.07;;;-2.00;99.90;;;;;;4923459;29;20054;-91
2021/12/30 01:45:56;;;;;;;10.32;5.03;;;-2.00;99.90;;;;;;4940994;29;20032;-89
2021/12/30 01:48:22;;;;;;;15.00;5.00;;;-2.00;99.90;;;;;;4924793;29;20038;-91
2021/12/30 01:50:49;;;;;;;13.43;5.88;;;-1.90;99.90;;;;;;4923767;29;20130;-91
2021/12/30 01:53:15;;;;;;;12.32;5.93;;;-1.90;99.90;;;;;;4940047;29;20032;-91
2021/12/30 01:55:43;;;;;;;14.45;6.25;;;-1.90;99.90;;;;;;4923112;29;20035;-91
2021/12/30 01:58:10;;;;;;;10.20;5.55;;;-1.90;99.90;;;;;;4922952;29;20035;-91
2021/12/30 02:00:37;;;;;;;9.30;5.45;;;-1.80;99.90;;;;;;4924030;29;20035;-90
2021/12/30 02:03:05;;;;;;;9.98;5.18;;;-1.80;99.90;;;;;;4924090;29;20035;-90
2021/12/30 02:05:32;;;;;;;10.95;6.03;;;-1.70;99.90;;;;;;4923994;29;20455;-91
2021/12/30 02:08:00;;;;;;;11.10;7.10;;;-1.80;99.90;;;;;;4923168;29;20042;-91
2021/12/30 02:10:26;;;;;;;13.85;5.40;;;-1.80;99.90;;;;;;4923070;29;20043;-90
2021/12/30 02:12:52;;;;;;;9.95;6.05;;;-1.80;99.90;;;;;;4923380;29;20518;-91
2021/12/30 02:15:19;;;;;;;11.40;5.00;;;-1.90;99.90;;;;;;4922956;29;20046;-91
2021/12/30 02:17:48;;;;;;;11.02;5.72;;;-1.90;99.90;;;;;;4923679;29;20035;-91
2021/12/30 02:20:37;;;;;;;12.07;6.53;;;-1.90;99.90;;;;;;4923798;29;20042;-90
2021/12/30 02:23:04;;;;;;;10.50;4.82;;;-1.90;99.90;;;;;;4908553;29;20035;-91
2021/12/30 02:25:29;;;;;;;9.73;5.65;;;-1.80;99.90;;;;;;4922868;29;20030;-91
2021/12/30 02:27:55;;;;;;;15.80;7.05;;;-1.80;99.90;;;;;;4922337;29;20114;-91
2021/12/30 02:30:21;;;;;;;12.38;6.28;;;-1.80;99.90;;;;;;4921789;29;20059;-91
2021/12/30 02:32:49;;;;;;;9.25;4.28;;;-1.90;99.90;;;;;;4922423;29;20032;-91
2021/12/30 02:35:15;;;;;;;13.32;6.22;;;-1.90;99.90;;;;;;4922335;29;20462;-91
2021/12/30 02:37:41;;;;;;;10.80;5.97;;;-2.00;99.90;;;;;;4922232;29;20067;-91
2021/12/30 02:40:07;;;;;;;15.85;5.78;;;-2.00;99.90;;;;;;4922006;29;20059;-92
2021/12/30 02:42:33;;;;;;;13.38;6.40;;;-2.00;99.90;;;;;;4922348;29;20114;-91
2021/12/30 02:44:59;;;;;;;11.25;4.80;;;-2.00;99.90;;;;;;4922602;29;20126;-91
2021/12/30 02:47:24;;;;;;;10.90;5.75;;;-1.90;99.90;;;;;;4922864;29;20572;-91
2021/12/30 02:49:50;;;;;;;8.45;4.10;;;-1.90;99.90;;;;;;4921290;29;20032;-91
2021/12/30 02:52:16;;;;;;;10.35;4.60;;;-1.90;99.90;;;;;;4922211;29;20035;-90
2021/12/30 02:54:42;;;;;;;13.95;5.22;;;-1.80;99.90;;;;;;4922222;29;20039;-91
2021/12/30 02:57:10;;;;;;;17.30;5.97;;;-1.80;99.90;;;;;;4922702;29;20031;-90
2021/12/30 02:59:36;;;;;;;13.73;6.03;;;-1.80;99.90;;;;;;4922080;29;20031;-91
2021/12/30 03:02:03;;;;;;;11.50;5.93;;;-1.80;99.90;;;;;;4921746;29;20106;-91
2021/12/30 03:04:30;;;;;;;9.32;4.60;;;-1.80;99.90;;;;;;4921676;29;20398;-91
2021/12/30 03:06:57;;;;;;;9.57;4.10;;;-1.80;99.90;;;;;;4922008;29;20032;-91
2021/12/30 03:09:26;;;;;;;8.43;4.90;;;-1.80;99.90;;;;;;4921558;29;20031;-91
2021/12/30 03:11:51;;;;;;;11.27;4.75;;;-1.80;99.90;;;;;;4922639;29;20043;-90
2021/12/30 03:14:17;;;;;;;13.13;6.13;;;-1.70;99.90;;;;;;4922343;29;20035;-91
2021/12/30 03:16:44;;;;;;;9.63;5.20;;;-1.70;99.90;;;;;;4923180;29;20391;-91
2021/12/30 03:19:10;;;;;;;9.43;4.63;;;-1.60;99.90;;;;;;4921897;29;20054;-91
2021/12/30 03:21:37;;;;;;;13.40;6.57;;;-1.60;99.90;;;;;;4921592;29;20506;-91
2021/12/30 03:24:05;;;;;;;12.70;5.75;;;-1.60;99.90;;;;;;4921655;29;20127;-91
2021/12/30 03:26:32;;;;;;;8.63;4.63;;;-1.60;99.90;;;;;;4921212;29;20034;-91
2021/12/30 03:29:00;;;;;;;7.85;4.70;;;-1.50;99.90;;;;;;4921377;29;20058;-91
2021/12/30 03:31:26;;;;;;;9.35;4.82;;;-1.50;99.90;;;;;;4920644;29;20094;-91
2021/12/30 03:33:52;;;;;;;13.85;5.75;;;-1.60;99.90;;;;;;4921254;29;20052;-91
2021/12/30 03:36:19;;;;;;;12.10;5.63;;;-1.50;99.90;;;;;;4921323;29;20079;-91
2021/12/30 03:38:48;;;;;;;10.50;6.43;;;-1.60;99.90;;;;;;4920697;29;20035;-91
2021/12/30 03:41:17;;;;;;;10.23;4.32;;;-1.50;99.90;;;;;;4921139;29;20114;-91
2021/12/30 03:43:42;;;;;;;10.80;4.93;;;-1.50;99.90;;;;;;4921878;29;20034;-91
2021/12/30 03:46:09;;;;;;;13.30;5.93;;;-1.60;99.90;;;;;;4921258;29;20367;-91
2021/12/30 03:48:40;;;;;;;9.15;5.18;;;-1.60;99.90;;;;;;4921332;29;20051;-91
2021/12/30 03:51:09;;;;;;;12.50;6.78;;;-1.60;99.90;;;;;;4921556;29;20050;-92
2021/12/30 03:53:39;;;;;;;11.75;3.97;;;-1.60;99.90;;;;;;4921790;29;20034;-90
2021/12/30 03:56:11;;;;;;;11.18;4.75;;;-1.70;99.90;;;;;;4921466;29;20374;-91
2021/12/30 03:58:39;;;;;;;10.10;5.43;;;-1.60;99.90;;;;;;4921292;29;20032;-91
2021/12/30 04:01:06;;;;;;;7.85;5.28;;;-1.60;99.90;;;;;;4921226;29;20035;-92
2021/12/30 04:03:32;;;;;;;11.75;6.22;;;-1.60;99.90;;;;;;4925148;29;20032;-91
2021/12/30 04:05:58;;;;;;;11.10;4.65;;;-1.60;99.90;;;;;;4925293;29;20024;-91
2021/12/30 04:08:24;;;;;;;12.70;4.90;;;-1.60;99.90;;;;;;4925411;29;20082;-91
2021/12/30 04:10:50;;;;;;;9.57;4.90;;;-1.60;99.90;;;;;;4942244;29;20038;-91
2021/12/30 04:13:15;;;;;;;13.20;5.45;;;-1.60;99.90;;;;;;4924558;29;20056;-90
2021/12/30 04:15:41;;;;;;;10.73;6.38;;;-1.70;99.90;;;;;;4924737;29;20032;-91
2021/12/30 04:18:07;;;;;;;11.52;6.28;;;-1.70;99.90;;;;;;4924944;29;20166;-91
2021/12/30 04:20:33;;;;;;;11.35;6.15;;;-1.70;99.90;;;;;;4924764;29;20123;-91
2021/12/30 04:22:59;;;;;;;17.17;7.20;;;-1.70;99.90;;;;;;4924488;29;20533;-90
2021/12/30 04:25:25;;;;;;;7.85;4.40;;;-1.80;99.90;;;;;;4924981;29;20118;-91
2021/12/30 04:27:51;;;;;;;10.38;5.28;;;-1.80;99.90;;;;;;4924810;29;20027;-90
2021/12/30 04:30:19;;;;;;;6.18;3.95;;;-1.80;99.90;;;;;;4923755;29;20383;-91
2021/12/30 04:32:45;;;;;;;11.23;5.75;;;-1.80;99.90;;;;;;4924245;29;20030;-91
2021/12/30 04:35:12;;;;;;;11.02;5.45;;;-1.80;99.90;;;;;;4924268;29;20459;-91
2021/12/30 04:37:38;;;;;;;10.00;4.85;;;-1.70;99.90;;;;;;4924284;29;20047;-91
2021/12/30 04:40:07;;;;;;;11.98;5.53;;;-1.60;99.90;;;;;;4924265;29;20063;-91
2021/12/30 04:42:32;;;;;;;13.70;7.40;;;-1.50;99.90;;;;;;4924494;29;20344;-91
2021/12/30 04:44:58;;;;;;;19.33;7.47;;;-1.50;99.90;;;;;;4924258;29;20095;-92
2021/12/30 04:47:25;;;;;;;14.15;7.82;;;-1.60;99.90;;;;;;4924613;29;20040;-91
2021/12/30 04:49:53;;;;;;;15.13;7.57;;;-1.60;99.90;;;;;;4923853;29;20059;-92
2021/12/30 04:52:19;;;;;;;11.18;5.07;;;-1.60;99.90;;;;;;4941100;29;20032;-92
2021/12/30 04:54:45;;;;;;;15.50;6.88;;;-1.60;99.90;;;;;;4923603;29;20038;-91
2021/12/30 04:57:11;;;;;;;17.38;9.00;;;-1.60;99.90;;;;;;4923831;29;20028;-92
2021/12/30 04:59:37;;;;;;;10.85;6.65;;;-1.50;99.90;;;;;;4923994;29;20028;-92
2021/12/30 05:02:03;;;;;;;14.82;8.13;;;-1.60;99.90;;;;;;4924386;29;20063;-91
2021/12/30 05:04:28;;;;;;;12.18;6.72;;;-1.60;99.90;;;;;;4924821;29;20024;-91
2021/12/30 05:06:54;;;;;;;11.55;6.32;;;-1.60;99.90;;;;;;4924634;29;20538;-92
2021/12/30 05:09:20;;;;;;;18.83;6.82;;;-1.50;99.90;;;;;;4923533;29;20530;-92
2021/12/30 05:11:46;;;;;;;15.45;7.97;;;-1.60;99.90;;;;;;4923318;29;20490;-91
2021/12/30 05:14:12;;;;;;;14.27;6.47;;;-1.60;99.90;;;;;;4922425;29;20055;-92
2021/12/30 05:16:39;;;;;;;12.30;7.13;;;-1.70;99.90;;;;;;4923533;29;20040;-91
2021/12/30 05:19:06;;;;;;;14.05;6.75;;;-1.70;99.90;;;;;;4922764;29;20039;-92
2021/12/30 05:21:32;;;;;;;13.23;6.38;;;-1.80;99.90;;;;;;4923869;29;20091;-91
2021/12/30 05:23:58;;;;;;;13.48;6.57;;;-1.80;99.90;;;;;;4923568;29;20035;-92
2021/12/30 05:26:27;;;;;;;14.68;6.38;;;-1.80;99.90;;;;;;4923724;29;20032;-91
2021/12/30 05:28:54;;;;;;;11.70;6.68;;;-1.90;99.90;;;;;;4940439;29;20546;-91
2021/12/30 05:31:20;;;;;;;16.30;7.72;;;-1.90;99.90;;;;;;4920902;29;20100;-91
2021/12/30 05:33:46;;;;;;;12.70;6.28;;;-1.90;99.90;;;;;;4920824;29;20036;-91
2021/12/30 05:36:12;;;;;;;14.38;7.10;;;-2.00;99.90;;;;;;4920653;29;20028;-92
2021/12/30 05:38:37;;;;;;;13.90;7.55;;;-2.00;99.90;;;;;;4921238;29;20032;-92
2021/12/30 05:41:03;;;;;;;12.55;6.45;;;-2.00;99.90;;;;;;4921187;29;20486;-92
2021/12/30 05:43:29;;;;;;;10.35;6.50;;;-2.10;99.90;;;;;;4921366;29;20035;-91
2021/12/30 05:45:55;;;;;;;17.80;8.80;;;-2.10;99.90;;;;;;4921675;29;20035;-92
2021/12/30 05:48:21;;;;;;;15.82;8.77;;;-2.10;99.90;;;;;;4922541;29;20367;-92
2021/12/30 05:50:46;;;;;;;15.73;8.38;;;-2.20;99.90;;;;;;4925897;29;20133;-91
2021/12/30 05:53:12;;;;;;;15.18;6.60;;;-2.20;99.90;;;;;;4926311;29;20028;-91
2021/12/30 05:55:38;;;;;;;13.05;6.75;;;-2.20;99.90;;;;;;4957926;29;20028;-91
2021/12/30 05:58:04;;;;;;;13.00;7.57;;;-2.20;99.90;;;;;;4924879;29;20099;-91
2021/12/30 06:00:33;;;;;;;14.80;7.68;;;-2.20;99.90;;;;;;4924541;29;20115;-91
2021/12/30 06:02:59;;;;;;;14.23;8.07;;;-2.20;99.90;;;;;;4928651;29;20471;-92
2021/12/30 06:05:25;;;;;;;11.73;6.25;;;-2.20;99.90;;;;;;4922017;29;20031;-93
2021/12/30 06:07:51;;;;;;;15.85;7.82;;;-2.20;99.90;;;;;;4922231;29;20032;-94
2021/12/30 06:10:17;;;;;;;19.20;9.52;;;-2.20;99.90;;;;;;4920090;29;20044;-94
2021/12/30 06:12:44;;;;;;;20.30;9.13;;;-2.10;99.90;;;;;;4920709;29;20428;-93
2021/12/30 06:15:11;;;;;;;19.23;9.70;;;-2.10;99.90;;;;;;4920040;29;20039;-94
2021/12/30 06:17:57;;;;;;;17.73;8.55;;;-2.10;99.90;;;;;;4922980;29;20104;-93
2021/12/30 06:20:23;;;;;;;20.13;9.43;;;-2.00;99.90;;;;;;4918767;29;20044;-96
2021/12/30 06:22:49;;;;;;;18.02;7.97;;;-2.10;99.90;;;;;;4927772;29;20130;-94
2021/12/30 06:25:15;;;;;;;25.00;12.77;;;-2.00;99.90;;;;;;4922030;29;20091;-95
2021/12/30 06:27:46;;;;;;;26.48;12.98;;;-2.00;99.90;;;;;;4930549;29;20024;-94
2021/12/30 06:30:17;;;;;;;17.60;8.80;;;-2.00;99.90;;;;;;4939464;29;20080;-96
2021/12/30 06:32:50;;;;;;;21.35;10.90;;;-2.00;99.90;;;;;;4934312;29;20578;-95
2021/12/30 06:35:16;;;;;;;21.83;11.70;;;-2.00;99.90;;;;;;4912318;29;20032;-94
2021/12/30 06:37:44;;;;;;;17.35;9.82;;;-2.00;99.90;;;;;;4929707;29;20065;-95
2021/12/30 06:40:13;;;;;;;18.52;10.10;;;-2.00;99.90;;;;;;4903728;29;20036;-92
2021/12/30 06:43:08;;;;;;;25.25;10.98;;;-1.90;99.90;;;;;;4904842;29;20036;-95
2021/12/30 06:45:44;;;;;;;17.77;9.25;;;-1.80;99.90;;;;;;4905228;29;20044;-93
2021/12/30 06:48:18;;;;;;;21.40;10.65;;;-1.80;99.90;;;;;;4903997;29;20084;-90
2021/12/30 06:50:56;;;;;;;18.92;9.50;;;-1.80;99.90;;;;;;4905525;29;20095;-90
2021/12/30 06:53:56;;;;;;;20.25;10.77;;;-1.80;99.90;;;;;;4902143;29;20432;-94
2021/12/30 06:56:45;;;;;;;16.40;8.77;;;-1.80;99.90;;;;;;4905363;29;20441;-92
2021/12/30 06:59:19;;;;;;;16.73;9.05;;;-1.80;99.90;;;;;;4902650;29;20458;-91
2021/12/30 07:02:00;;;;;;;;;;;;;;;;;;;;;
2021/12/30 07:08:05;;;;;;;17.92;10.15;;;-1.90;99.90;;;;;;4806544;29;20053;-90
2021/12/30 07:14:33;;;;;;;26.80;11.15;;;-1.90;99.90;;;;;;4826248;29;20037;-91
2021/12/30 07:17:51;;;;;;;16.80;7.53;;;-1.90;99.90;;;;;;4824815;29;20072;-90
2021/12/30 07:20:24;;;;;;;16.15;7.28;;;-1.80;99.90;;;;;;4828265;29;20048;-89
2021/12/30 07:23:18;;;;;;;14.45;8.18;;;-1.70;99.90;;;;;;4858659;29;20044;-89
2021/12/30 07:25:47;;;;;;;14.30;6.78;;;-1.60;99.90;;;;;;4857610;29;20044;-88
2021/12/30 07:28:19;;;;;;;14.65;6.20;;;-1.40;99.90;;;;;;4844279;29;20038;-89
2021/12/30 07:30:51;;;;;;;18.08;7.70;;;-1.40;99.90;;;;;;4843903;29;20113;-90
2021/12/30 07:33:21;;;;;;;13.95;8.95;;;-1.20;99.90;;;;;;4841826;29;20036;-89
2021/12/30 07:35:50;;;;;;;17.77;8.25;;;-1.10;99.90;;;;;;4848059;29;20236;-91
2021/12/30 07:38:23;;;;;;;21.90;9.15;;;-1.00;99.90;;;;;;4907203;29;20466;-89
2021/12/30 07:41:08;;;;;;;;;;;;;;;;;;;;;
2021/12/30 07:43:35;;;;;;;28.42;13.68;;;-1.00;99.90;;;;;;4919211;29;20036;-88
2021/12/30 07:46:02;;;;;;;30.30;10.82;;;-1.00;99.90;;;;;;4910791;29;20039;-90
2021/12/30 07:49:36;;;;;;;;;;;;;;;;;;;;;
2021/12/30 08:23:58;;;;;;;10.07;5.45;;;0.40;99.90;;;;;;4936425;28;20052;-92
2021/12/30 08:26:30;;;;;;;17.50;7.82;;;0.50;99.90;;;;;;4921199;29;20079;-91
2021/12/30 08:28:58;;;;;;;17.38;8.77;;;0.50;99.90;;;;;;4920169;29;20471;-91
2021/12/30 08:31:32;;;;;;;19.75;9.27;;;0.40;99.90;;;;;;4905665;29;20123;-91
2021/12/30 08:34:03;;;;;;;21.65;8.93;;;0.40;99.90;;;;;;4905080;29;20409;-89
2021/12/30 08:36:39;;;;;;;16.08;7.43;;;0.20;99.90;;;;;;4920137;29;20123;-90
2021/12/30 08:39:11;;;;;;;11.00;6.43;;;0.20;99.90;;;;;;4920735;29;20053;-92
2021/12/30 08:41:48;;;;;;;11.13;7.00;;;0.30;99.90;;;;;;4919597;29;20438;-91
2021/12/30 08:44:18;;;;;;;12.80;7.57;;;0.30;99.90;;;;;;4905049;29;20035;-91
2021/12/30 08:47:36;;;;;;;15.63;7.47;;;0.40;99.90;;;;;;4897524;29;20120;-92
2021/12/30 08:53:25;;;;;;;11.02;5.47;;;0.40;99.90;;;;;;4900192;29;20100;-91
2021/12/30 08:59:24;;;;;;;13.50;6.75;;;0.50;99.90;;;;;;4881589;29;20040;-90
2021/12/30 09:01:50;;;;;;;12.95;6.20;;;0.60;99.90;;;;;;4881486;29;20045;-92
2021/12/30 09:04:22;;;;;;;13.45;5.32;;;0.70;99.90;;;;;;4849564;29;20116;-91
2021/12/30 09:10:40;;;;;;;;;;;;;;;;;;;;;
2021/12/30 09:17:34;;;;;;;;;;;;;;;;;;;;;
2021/12/30 09:20:27;;;;;;;23.35;12.55;;;1.00;99.90;;;;;;4881227;29;20411;-90
2021/12/30 09:23:06;;;;;;;16.85;7.70;;;0.90;99.20;;;;;;4921605;29;20062;-90
2021/12/30 09:28:50;;;;;;;14.25;7.55;;;0.70;99.90;;;;;;5151947;23;20062;-95
2021/12/30 09:48:38;;;;;;;16.33;6.68;;;0.80;99.90;;;;;;4843821;29;20082;-93
2021/12/30 11:00:15;;;;;;;18.35;8.55;;;1.50;99.90;;;;;;4826805;29;20086;-94
2021/12/30 11:17:34;;;;;;;10.63;6.78;;;1.80;99.90;;;;;;4790762;29;20100;-92
2021/12/30 11:24:03;;;;;;;16.00;7.75;;;1.80;99.90;;;;;;4845719;29;20207;-95
2021/12/30 11:39:54;;;;;;;11.30;6.63;;;1.60;99.90;;;;;;5007961;28;20069;-95
2021/12/30 11:43:06;;;;;;;13.55;6.38;;;1.70;99.90;;;;;;4991018;28;20066;-94
2021/12/30 11:45:44;;;;;;;18.92;7.93;;;1.70;99.90;;;;;;4978660;28;20129;-92
2021/12/30 11:48:29;;;;;;;14.52;7.07;;;1.80;99.90;;;;;;4969896;28;20046;-92
2021/12/30 11:51:12;;;;;;;15.50;8.43;;;1.80;99.90;;;;;;5004771;28;20038;-95
2021/12/30 11:53:38;;;;;;;16.40;10.02;;;1.80;99.90;;;;;;4988186;28;20067;-94
2021/12/30 11:56:18;;;;;;;16.92;8.73;;;1.80;99.90;;;;;;4987088;28;20076;-92
2021/12/30 11:58:48;;;;;;;20.55;9.02;;;1.70;99.90;;;;;;4983972;28;20058;-93
2021/12/30 12:01:38;;;;;;;17.95;8.45;;;1.60;99.90;;;;;;5010935;28;20094;-91
2021/12/30 12:04:09;;;;;;;19.60;8.60;;;1.60;99.90;;;;;;5013009;28;20122;-93
2021/12/30 12:07:09;;;;;;;13.13;7.60;;;1.60;99.90;;;;;;4997342;28;20038;-93
2021/12/30 12:09:38;;;;;;;14.20;6.90;;;1.60;99.90;;;;;;4982867;28;20077;-94
2021/12/30 12:12:29;;;;;;;14.85;7.70;;;1.50;99.90;;;;;;4992810;28;20461;-94
2021/12/30 12:14:59;;;;;;;19.75;11.02;;;1.50;99.90;;;;;;4984590;28;20045;-94
2021/12/30 12:17:41;;;;;;;20.20;8.43;;;1.50;99.90;;;;;;4992923;28;20019;-96
2021/12/30 12:20:20;;;;;;;20.02;8.68;;;1.40;99.90;;;;;;4990029;28;20042;-94
2021/12/30 12:22:46;;;;;;;14.23;7.80;;;1.30;99.90;;;;;;4990455;28;20034;-95
2021/12/30 12:25:20;;;;;;;14.20;6.75;;;1.30;99.90;;;;;;4995533;28;20114;-95
2021/12/30 12:27:49;;;;;;;19.25;8.18;;;1.30;99.90;;;;;;4995286;28;20035;-93
2021/12/30 12:30:30;;;;;;;14.57;8.00;;;1.40;99.90;;;;;;4998222;28;20078;-94
2021/12/30 12:32:57;;;;;;;20.90;8.50;;;1.40;99.90;;;;;;4994902;28;20038;-94
2021/12/30 12:35:30;;;;;;;11.68;7.38;;;1.40;99.90;;;;;;4994174;28;20532;-92
2021/12/30 12:38:00;;;;;;;12.88;6.63;;;1.40;99.90;;;;;;4993992;28;20034;-94
2021/12/30 12:40:53;;;;;;;15.52;6.75;;;1.40;99.90;;;;;;4992419;28;20039;-93
2021/12/30 12:43:27;;;;;;;14.68;6.97;;;1.40;99.90;;;;;;4991255;28;20044;-95
2021/12/30 12:45:59;;;;;;;13.45;7.20;;;1.50;99.90;;;;;;4995653;28;20042;-92
2021/12/30 12:48:34;;;;;;;14.98;8.60;;;1.50;99.90;;;;;;4997219;28;20034;-94
2021/12/30 12:51:00;;;;;;;18.65;8.10;;;1.60;99.90;;;;;;4997302;28;20066;-94
2021/12/30 12:53:26;;;;;;;19.25;7.20;;;1.60;99.90;;;;;;4996400;28;20110;-93
2021/12/30 12:56:07;;;;;;;13.98;7.68;;;1.70;99.90;;;;;;4993376;28;20045;-95
2021/12/30 12:58:50;;;;;;;14.60;6.75;;;1.60;99.90;;;;;;4991920;28;20038;-94
2021/12/30 13:01:21;;;;;;;19.40;8.20;;;1.70;99.90;;;;;;4990928;28;20038;-94
2021/12/30 13:03:47;;;;;;;19.25;8.88;;;1.70;99.90;;;;;;4991663;28;20045;-95
2021/12/30 13:06:17;;;;;;;13.52;7.30;;;1.70;99.90;;;;;;5007413;28;20034;-94
2021/12/30 13:08:51;;;;;;;12.75;7.05;;;1.70;99.90;;;;;;4991968;28;20038;-94
2021/12/30 13:11:29;;;;;;;18.63;8.05;;;1.70;99.90;;;;;;4993001;28;20042;-94
2021/12/30 13:13:56;;;;;;;16.98;9.13;;;1.60;99.90;;;;;;4990450;28;20030;-94
2021/12/30 13:16:29;;;;;;;19.08;7.32;;;1.60;99.90;;;;;;5007890;28;20034;-94
2021/12/30 13:19:04;;;;;;;16.30;8.05;;;1.50;99.90;;;;;;4994504;28;20038;-93
2021/12/30 13:21:51;;;;;;;9.50;5.85;;;1.50;99.90;;;;;;4994175;28;20065;-93
2021/12/30 13:24:36;;;;;;;13.70;6.80;;;1.50;99.90;;;;;;4995971;28;20102;-93
2021/12/30 13:27:08;;;;;;;10.68;5.70;;;1.40;99.90;;;;;;4996503;28;20035;-94
2021/12/30 13:29:38;;;;;;;11.35;5.72;;;1.40;99.90;;;;;;4997208;28;20046;-93
2021/12/30 13:32:07;;;;;;;10.75;5.47;;;1.30;99.90;;;;;;4996796;28;20049;-94
2021/12/30 13:34:35;;;;;;;13.13;6.75;;;1.30;99.90;;;;;;4996195;28;20048;-94
2021/12/30 13:37:17;;;;;;;12.63;5.72;;;1.30;99.90;;;;;;4998394;28;20034;-94
2021/12/30 13:39:44;;;;;;;11.40;5.70;;;1.30;99.90;;;;;;4999901;28;20035;-95
2021/12/30 13:42:19;;;;;;;9.70;5.82;;;1.20;99.90;;;;;;4999966;28;20045;-94
2021/12/30 13:44:51;;;;;;;12.98;6.15;;;1.20;99.90;;;;;;4999487;28;20034;-94
2021/12/30 13:47:24;;;;;;;9.35;5.05;;;1.20;99.90;;;;;;4999792;28;20043;-95
2021/12/30 13:49:56;;;;;;;10.25;5.78;;;1.20;99.90;;;;;;4998537;28;20051;-93
2021/12/30 13:52:29;;;;;;;14.50;6.85;;;1.10;99.90;;;;;;4997383;28;20094;-93
2021/12/30 13:55:16;;;;;;;9.25;5.45;;;1.10;99.90;;;;;;5013184;28;20090;-94
2021/12/30 13:57:46;;;;;;;11.35;6.25;;;1.10;99.90;;;;;;4996694;28;20072;-93
2021/12/30 14:00:20;;;;;;;15.88;8.43;;;1.00;99.90;;;;;;5013608;28;20065;-93
2021/12/30 14:03:01;;;;;;;12.75;7.20;;;1.00;99.90;;;;;;5001137;28;20026;-95
2021/12/30 14:05:27;;;;;;;15.70;8.32;;;0.90;99.90;;;;;;4998610;28;20038;-95
2021/12/30 14:07:52;;;;;;;14.60;7.72;;;0.90;99.90;;;;;;4998229;28;20106;-94
2021/12/30 14:10:19;;;;;;;18.85;9.20;;;0.80;99.90;;;;;;4996841;28;20026;-94
2021/12/30 14:12:56;;;;;;;14.68;7.25;;;0.80;99.90;;;;;;4994188;28;20030;-94
2021/12/30 14:15:22;;;;;;;16.42;8.43;;;0.80;99.90;;;;;;4983285;28;20031;-93
2021/12/30 14:17:58;;;;;;;16.65;8.13;;;0.80;99.90;;;;;;4982470;28;20045;-93
2021/12/30 14:20:24;;;;;;;17.42;7.68;;;0.80;99.90;;;;;;5005019;28;20488;-94
2021/12/30 14:22:50;;;;;;;21.00;8.02;;;0.80;99.90;;;;;;4989312;28;20046;-95
2021/12/30 14:25:25;;;;;;;13.75;7.25;;;0.80;99.90;;;;;;4990964;28;20079;-94
2021/12/30 14:27:54;;;;;;;21.02;9.30;;;0.70;99.90;;;;;;4996497;28;20050;-96
2021/12/30 14:30:22;;;;;;;13.88;7.60;;;0.80;99.90;;;;;;5249494;23;20034;-93
2021/12/30 14:32:48;;;;;;;16.67;7.07;;;0.80;99.90;;;;;;4998333;28;20046;-95
2021/12/30 14:35:15;;;;;;;14.07;6.07;;;0.80;99.90;;;;;;4996874;28;20038;-95
2021/12/30 14:37:44;;;;;;;18.02;7.80;;;0.80;99.90;;;;;;4995924;28;20050;-96
2021/12/30 14:40:16;;;;;;;19.10;9.32;;;0.90;99.90;;;;;;4998371;28;20058;-94
2021/12/30 14:42:42;;;;;;;18.88;9.20;;;0.90;99.90;;;;;;4998919;28;20084;-93
2021/12/30 14:45:16;;;;;;;14.20;6.53;;;0.90;99.90;;;;;;4997099;28;20034;-94
2021/12/30 14:48:10;;;;;;;14.70;6.97;;;0.90;99.90;;;;;;4995607;28;20058;-95
2021/12/30 14:50:41;;;;;;;22.73;8.93;;;0.90;99.90;;;;;;4991439;28;20042;-95
2021/12/30 14:53:18;;;;;;;12.93;7.05;;;0.90;99.90;;;;;;5009194;28;20065;-95
2021/12/30 14:55:45;;;;;;;11.63;5.55;;;0.90;99.90;;;;;;4992879;28;20038;-94
2021/12/30 14:58:14;;;;;;;19.30;8.52;;;0.90;99.90;;;;;;5010203;28;20042;-96
2021/12/30 15:00:49;;;;;;;17.38;8.52;;;0.90;99.90;;;;;;4992888;28;20039;-95
2021/12/30 15:03:16;;;;;;;16.85;8.63;;;0.90;99.90;;;;;;4992756;28;20030;-93
2021/12/30 15:05:42;;;;;;;14.68;7.75;;;0.90;99.90;;;;;;4992302;28;20066;-94
2021/12/30 15:08:08;;;;;;;24.13;10.18;;;0.90;99.90;;;;;;4991506;28;20045;-95
2021/12/30 15:10:47;;;;;;;23.83;9.70;;;0.90;99.90;;;;;;5011844;28;20034;-95
2021/12/30 15:13:13;;;;;;;25.00;12.13;;;0.90;99.90;;;;;;4992405;28;20026;-95
2021/12/30 15:15:42;;;;;;;19.77;11.73;;;0.90;99.90;;;;;;4997097;28;20046;-94
2021/12/30 15:18:11;;;;;;;23.77;12.05;;;0.90;99.90;;;;;;4997093;28;20031;-94
2021/12/30 15:20:37;;;;;;;23.63;11.07;;;0.90;99.90;;;;;;4997488;28;20034;-95
2021/12/30 15:23:05;;;;;;;24.77;11.90;;;0.80;99.90;;;;;;4993340;28;20022;-96
2021/12/30 15:25:31;;;;;;;19.95;9.35;;;0.80;99.90;;;;;;4995837;28;20106;-94
2021/12/30 15:27:58;;;;;;;21.55;9.02;;;0.80;99.90;;;;;;5011265;28;20069;-94
2021/12/30 15:30:25;;;;;;;21.52;10.15;;;0.70;99.90;;;;;;4990481;28;20061;-93
2021/12/30 15:32:53;;;;;;;28.30;10.43;;;0.80;99.90;;;;;;4988335;28;20058;-95
2021/12/30 15:35:21;;;;;;;18.48;8.35;;;0.80;99.90;;;;;;4999550;28;20038;-94
2021/12/30 15:37:49;;;;;;;20.65;11.00;;;0.70;99.90;;;;;;4990231;28;20066;-93
2021/12/30 15:40:15;;;;;;;23.42;11.10;;;0.70;99.90;;;;;;4971985;28;20065;-95
2021/12/30 15:42:43;;;;;;;20.25;11.25;;;0.70;99.90;;;;;;4972306;28;20038;-93
2021/12/30 15:45:11;;;;;;;13.95;9.93;;;0.60;99.90;;;;;;4974617;28;20035;-93
2021/12/30 15:47:39;;;;;;;22.90;12.35;;;0.60;99.90;;;;;;4982779;28;20038;-95
2021/12/30 15:50:07;;;;;;;19.27;9.43;;;0.60;99.90;;;;;;4991314;28;20047;-94
2021/12/30 15:52:33;;;;;;;12.52;8.63;;;0.50;99.90;;;;;;4992273;28;20057;-93
2021/12/30 15:54:59;;;;;;;18.38;8.90;;;0.50;99.90;;;;;;4996285;28;20034;-94
2021/12/30 15:57:25;;;;;;;24.50;11.45;;;0.40;99.90;;;;;;4994028;28;20417;-94